Time;durP1;ratioP1;P1;durP2;ratioP2;P2;SDS_P1;SDS_P2;PMS_P1;PMS_P2;Temp;Humidity;BMP_temperature;BMP_pressure;BME280_temperature;BME280_humidity;BME280_pressure;Samples;Min_cycle;Max_cycle;Signal;HPM_P1;HPM_P2
2022/12/06 00:00:44;;;;;;;;;;;;;;;;;;5005700;28;1017;-82
2022/12/06 00:03:10;;;;;;;;;;;;;;;;;;5003260;28;1313;-81
2022/12/06 00:05:36;;;;;;;;;;;;;;;;;;5005249;28;1313;-81
2022/12/06 00:08:02;;;;;;;;;;;;;;;;;;5003761;28;1133;-81
2022/12/06 00:10:28;;;;;;;;;;;;;;;;;;5004412;28;1950;-82
2022/12/06 00:12:54;;;;;;;;;;;;;;;;;;5003142;28;1140;-81
2022/12/06 00:15:20;;;;;;;;;;;;;;;;;;5004334;28;1338;-82
2022/12/06 00:17:46;;;;;;;;;;;;;;;;;;5004956;28;1325;-82
2022/12/06 00:20:12;;;;;;;;;;;;;;;;;;5005846;28;1507;-81
2022/12/06 00:22:38;;;;;;;;;;;;;;;;;;5004934;28;1057;-81
2022/12/06 00:25:04;;;;;;;;;;;;;;;;;;5004523;28;1418;-81
2022/12/06 00:27:30;;;;;;;;;;;;;;;;;;5006002;28;925;-83
2022/12/06 00:29:57;;;;;;;;;;;;;;;;;;5005518;28;1970;-82
2022/12/06 00:32:23;;;;;;;;;;;;;;;;;;5003644;28;1491;-82
2022/12/06 00:34:49;;;;;;;;;;;;;;;;;;5003778;28;1411;-82
2022/12/06 00:37:15;;;;;;;;;;;;;;;;;;5003697;28;1269;-82
2022/12/06 00:39:41;;;;;;;;;;;;;;;;;;5003468;28;1310;-83
2022/12/06 00:42:07;;;;;;;;;;;;;;;;;;5003008;28;1109;-82
2022/12/06 00:44:33;;;;;;;;;;;;;;;;;;5006859;28;1255;-82
2022/12/06 00:46:59;;;;;;;;;;;;;;;;;;5005361;28;1298;-81
2022/12/06 00:49:25;;;;;;;;;;;;;;;;;;5004356;28;1903;-82
2022/12/06 00:51:51;;;;;;;;;;;;;;;;;;5003606;28;1213;-81
2022/12/06 00:54:17;;;;;;;;;;;;;;;;;;5005879;28;1108;-83
2022/12/06 00:56:43;;;;;;;;;;;;;;;;;;5004722;28;1360;-82
2022/12/06 00:59:09;;;;;;;;;;;;;;;;;;5004693;28;838;-83
2022/12/06 01:01:36;;;;;;;;;;;;;;;;;;5003782;28;1092;-83
2022/12/06 01:04:02;;;;;;;;;;;;;;;;;;5002738;28;2018;-83
2022/12/06 01:06:28;;;;;;;;;;;;;;;;;;5005374;28;1328;-81
2022/12/06 01:08:54;;;;;;;;;;;;;;;;;;5001833;28;2050;-79
2022/12/06 01:11:21;;;;;;;;;;;;;;;;;;4999403;28;1758;-81
2022/12/06 01:13:47;;;;;;;;;;;;;;;;;;5017846;28;1257;-82
2022/12/06 01:16:13;;;;;;;;;;;;;;;;;;5025010;28;1346;-79
2022/12/06 01:18:39;;;;;;;;;;;;;;;;;;5001599;28;2047;-82
2022/12/06 01:21:05;;;;;;;;;;;;;;;;;;5002631;28;1162;-82
2022/12/06 01:23:31;;;;;;;;;;;;;;;;;;5007376;28;2100;-80
2022/12/06 01:25:57;;;;;;;;;;;;;;;;;;5013977;28;2020;-82
2022/12/06 01:28:23;;;;;;;;;;;;;;;;;;5002692;28;1974;-79
2022/12/06 01:30:50;;;;;;;;;;;;;;;;;;4999676;28;2138;-82
2022/12/06 01:33:16;;;;;;;;;;;;;;;;;;5001880;28;2014;-83
2022/12/06 01:35:42;;;;;;;;;;;;;;;;;;5005302;28;1404;-83
2022/12/06 01:38:08;;;;;;;;;;;;;;;;;;5004995;28;1034;-83
2022/12/06 01:40:34;;;;;;;;;;;;;;;;;;5005732;28;1076;-83
2022/12/06 01:43:00;;;;;;;;;;;;;;;;;;5002176;28;1975;-81
2022/12/06 01:45:26;;;;;;;;;;;;;;;;;;5011883;28;1850;-82
2022/12/06 01:47:52;;;;;;;;;;;;;;;;;;5006638;28;1157;-83
2022/12/06 01:50:18;;;;;;;;;;;;;;;;;;5005261;28;1922;-82
2022/12/06 01:52:44;;;;;;;;;;;;;;;;;;5003782;28;1240;-81
2022/12/06 01:55:10;;;;;;;;;;;;;;;;;;5005841;28;1800;-83
2022/12/06 01:57:37;;;;;;;;;;;;;;;;;;5010727;28;1744;-82
2022/12/06 02:00:07;;;;;;;;;;;;;;;;;;5012027;28;1766;-83
2022/12/06 02:02:36;;;;;;;;;;;;;;;;;;5002620;28;2248;-83
2022/12/06 02:05:02;;;;;;;;;;;;;;;;;;5004714;28;1893;-82
2022/12/06 02:07:28;;;;;;;;;;;;;;;;;;5004880;28;1162;-82
2022/12/06 02:09:55;;;;;;;;;;;;;;;;;;5004966;28;1989;-83
2022/12/06 02:12:21;;;;;;;;;;;;;;;;;;4997241;28;1795;-82
2022/12/06 02:14:47;;;;;;;;;;;;;;;;;;5000207;28;2021;-80
2022/12/06 02:17:13;;;;;;;;;;;;;;;;;;5005260;28;1284;-83
2022/12/06 02:19:39;;;;;;;;;;;;;;;;;;5005115;28;2074;-83
2022/12/06 02:22:05;;;;;;;;;;;;;;;;;;5004800;28;1127;-82
2022/12/06 02:24:31;;;;;;;;;;;;;;;;;;5003227;28;1469;-82
2022/12/06 02:26:57;;;;;;;;;;;;;;;;;;5003412;28;1335;-81
2022/12/06 02:29:23;;;;;;;;;;;;;;;;;;5005266;28;2037;-82
2022/12/06 02:31:49;;;;;;;;;;;;;;;;;;5006534;28;1734;-82
2022/12/06 02:34:16;;;;;;;;;;;;;;;;;;5002572;28;1771;-83
2022/12/06 02:36:42;;;;;;;;;;;;;;;;;;5007242;28;1513;-83
2022/12/06 02:39:08;;;;;;;;;;;;;;;;;;5023925;28;1178;-81
2022/12/06 02:41:34;;;;;;;;;;;;;;;;;;5023659;28;1049;-82
2022/12/06 02:44:00;;;;;;;;;;;;;;;;;;5023604;28;1134;-83
2022/12/06 02:46:28;;;;;;;;;;;;;;;;;;5004722;28;2053;-83
2022/12/06 02:48:54;;;;;;;;;;;;;;;;;;5004265;28;1807;-81
2022/12/06 02:51:20;;;;;;;;;;;;;;;;;;5021615;28;1979;-80
2022/12/06 02:53:46;;;;;;;;;;;;;;;;;;5024427;28;1172;-82
2022/12/06 02:56:12;;;;;;;;;;;;;;;;;;5023183;28;1309;-82
2022/12/06 02:58:38;;;;;;;;;;;;;;;;;;5005596;28;2061;-82
2022/12/06 03:01:05;;;;;;;;;;;;;;;;;;5002812;28;1867;-82
2022/12/06 03:03:31;;;;;;;;;;;;;;;;;;5013570;28;1751;-83
2022/12/06 03:05:57;;;;;;;;;;;;;;;;;;5007706;28;1827;-82
2022/12/06 03:08:23;;;;;;;;;;;;;;;;;;5011564;28;2194;-82
2022/12/06 03:10:49;;;;;;;;;;;;;;;;;;5014376;28;1894;-83
2022/12/06 03:13:15;;;;;;;;;;;;;;;;;;5006384;28;1768;-82
2022/12/06 03:15:42;;;;;;;;;;;;;;;;;;5007463;28;1323;-82
2022/12/06 03:18:08;;;;;;;;;;;;;;;;;;5011808;28;1949;-82
2022/12/06 03:20:41;;;;;;;;;;;;;;;;;;5006577;28;1862;-82
2022/12/06 03:23:07;;;;;;;;;;;;;;;;;;5005323;28;1159;-82
2022/12/06 03:25:33;;;;;;;;;;;;;;;;;;5006761;28;1334;-82
2022/12/06 03:27:59;;;;;;;;;;;;;;;;;;5005114;28;1898;-82
2022/12/06 03:30:25;;;;;;;;;;;;;;;;;;5004304;28;1952;-82
2022/12/06 03:32:51;;;;;;;;;;;;;;;;;;5000795;28;1772;-82
2022/12/06 03:35:18;;;;;;;;;;;;;;;;;;5004487;28;1800;-81
2022/12/06 03:37:44;;;;;;;;;;;;;;;;;;5011864;28;2013;-82
2022/12/06 03:40:10;;;;;;;;;;;;;;;;;;5007087;28;1141;-79
2022/12/06 03:42:36;;;;;;;;;;;;;;;;;;5005613;28;2117;-82
2022/12/06 03:45:02;;;;;;;;;;;;;;;;;;5007431;28;1778;-83
2022/12/06 03:47:29;;;;;;;;;;;;;;;;;;5005641;28;2006;-82
2022/12/06 03:49:55;;;;;;;;;;;;;;;;;;5007194;28;2240;-83
2022/12/06 03:52:21;;;;;;;;;;;;;;;;;;5007058;28;1890;-82
2022/12/06 03:54:47;;;;;;;;;;;;;;;;;;5013077;28;1931;-83
2022/12/06 03:57:13;;;;;;;;;;;;;;;;;;5008070;28;1775;-82
2022/12/06 03:59:39;;;;;;;;;;;;;;;;;;5006883;28;1170;-83
2022/12/06 04:02:05;;;;;;;;;;;;;;;;;;5006657;28;1167;-83
2022/12/06 04:04:31;;;;;;;;;;;;;;;;;;5006715;28;1125;-84
2022/12/06 04:06:58;;;;;;;;;;;;;;;;;;5055509;23;3513;-76
2022/12/06 04:12:59;;;;;;;;;;;;;;;;;;5079605;28;1208;-75
2022/12/06 04:14:51;;;;;;;;;;;;;;;;;;5092245;28;1320;-76
2022/12/06 04:20:00;;;;;;;;;;;;;;;;;;5092242;28;960;-76
2022/12/06 04:25:10;;;;;;;;;;;;;;;;;;5091791;28;1383;-76
2022/12/06 04:38:41;;;;;;;;;;;;;;;;;;5092972;28;988;-74
2022/12/06 04:41:07;;;;;;;;;;;;;;;;;;5093008;28;864;-76
2022/12/06 04:43:41;;;;;;;;;;;;;;;;;;5092068;28;1031;-73
2022/12/06 04:46:07;;;;;;;;;;;;;;;;;;5091633;28;1418;-76
2022/12/06 04:48:34;;;;;;;;;;;;;;;;;;5093097;28;1058;-75
2022/12/06 04:51:00;;;;;;;;;;;;;;;;;;5092951;28;2253;-76
2022/12/06 04:53:26;;;;;;;;;;;;;;;;;;5090717;28;1236;-76
2022/12/06 04:55:52;;;;;;;;;;;;;;;;;;5092138;28;1399;-76
2022/12/06 04:58:18;;;;;;;;;;;;;;;;;;5092521;28;1181;-75
2022/12/06 05:00:44;;;;;;;;;;;;;;;;;;5092760;28;1086;-77
2022/12/06 05:03:10;;;;;;;;;;;;;;;;;;5088112;28;1545;-76
2022/12/06 05:05:37;;;;;;;;;;;;;;;;;;5088275;28;1414;-76
2022/12/06 05:08:03;;;;;;;;;;;;;;;;;;5089772;28;1475;-77
2022/12/06 05:10:29;;;;;;;;;;;;;;;;;;5092394;28;1985;-76
2022/12/06 05:12:55;;;;;;;;;;;;;;;;;;5091878;28;1233;-77
2022/12/06 05:15:21;;;;;;;;;;;;;;;;;;5090620;28;1437;-77
2022/12/06 05:17:47;;;;;;;;;;;;;;;;;;5091783;28;1389;-77
2022/12/06 05:20:14;;;;;;;;;;;;;;;;;;5091286;28;1357;-77
2022/12/06 05:22:40;;;;;;;;;;;;;;;;;;5091624;28;1177;-75
2022/12/06 05:25:06;;;;;;;;;;;;;;;;;;5091848;28;1137;-74
2022/12/06 05:27:32;;;;;;;;;;;;;;;;;;5090684;28;1418;-77
2022/12/06 05:29:58;;;;;;;;;;;;;;;;;;5091469;28;1910;-75
2022/12/06 05:32:24;;;;;;;;;;;;;;;;;;5087404;28;1400;-75
2022/12/06 05:34:50;;;;;;;;;;;;;;;;;;5091716;28;1208;-75
2022/12/06 05:37:16;;;;;;;;;;;;;;;;;;5091326;28;1435;-74
2022/12/06 05:39:42;;;;;;;;;;;;;;;;;;5091265;28;1390;-75
2022/12/06 05:42:08;;;;;;;;;;;;;;;;;;5090959;28;1381;-75
2022/12/06 05:44:34;;;;;;;;;;;;;;;;;;5088810;28;1406;-76
2022/12/06 05:47:01;;;;;;;;;;;;;;;;;;5090851;28;1505;-75
2022/12/06 05:49:27;;;;;;;;;;;;;;;;;;5091346;28;1178;-76
2022/12/06 05:51:53;;;;;;;;;;;;;;;;;;5090028;28;1902;-77
2022/12/06 05:54:19;;;;;;;;;;;;;;;;;;5077319;28;1096;-77
2022/12/06 05:56:45;;;;;;;;;;;;;;;;;;5077922;28;1480;-75
2022/12/06 05:59:11;;;;;;;;;;;;;;;;;;5091707;28;1059;-75
2022/12/06 06:01:37;;;;;;;;;;;;;;;;;;5090920;28;1099;-75
2022/12/06 06:04:03;;;;;;;;;;;;;;;;;;5091652;28;897;-75
2022/12/06 06:06:29;;;;;;;;;;;;;;;;;;5090232;28;1337;-75
2022/12/06 06:08:55;;;;;;;;;;;;;;;;;;5090421;28;1241;-75
2022/12/06 06:11:21;;;;;;;;;;;;;;;;;;5090883;28;1949;-76
2022/12/06 06:13:48;;;;;;;;;;;;;;;;;;5091781;28;1109;-75
2022/12/06 06:16:14;;;;;;;;;;;;;;;;;;5088152;28;1341;-75
2022/12/06 06:18:40;;;;;;;;;;;;;;;;;;5071282;28;1069;-75
2022/12/06 06:21:06;;;;;;;;;;;;;;;;;;5080179;28;1467;-75
2022/12/06 06:23:32;;;;;;;;;;;;;;;;;;5089390;28;1256;-75
2022/12/06 06:25:58;;;;;;;;;;;;;;;;;;5090518;28;1472;-75
2022/12/06 06:28:24;;;;;;;;;;;;;;;;;;5080550;28;1393;-75
2022/12/06 06:30:50;;;;;;;;;;;;;;;;;;5081991;28;1982;-76
2022/12/06 06:33:16;;;;;;;;;;;;;;;;;;5079417;28;1214;-75
2022/12/06 06:35:43;;;;;;;;;;;;;;;;;;5082821;28;1220;-75
2022/12/06 06:38:09;;;;;;;;;;;;;;;;;;5091214;28;1334;-75
2022/12/06 06:40:35;;;;;;;;;;;;;;;;;;5086462;28;1725;-75
2022/12/06 06:43:16;;;;;;;;;;;;;;;;;;5070742;28;1376;-74
2022/12/06 06:45:42;;;;;;;;;;;;;;;;;;5081104;28;1341;-77
2022/12/06 06:48:09;;;;;;;;;;;;;;;;;;5088243;28;1419;-74
2022/12/06 06:50:35;;;;;;;;;;;;;;;;;;5092866;28;1914;-74
2022/12/06 06:53:01;;;;;;;;;;;;;;;;;;5109801;28;1426;-73
2022/12/06 06:55:29;;;;;;;;;;;;;;;;;;5095801;28;1285;-75
2022/12/06 06:57:55;;;;;;;;;;;;;;;;;;5095364;28;1340;-72
2022/12/06 07:00:21;;;;;;;;;;;;;;;;;;5094983;28;1067;-74
2022/12/06 07:02:47;;;;;;;;;;;;;;;;;;5092216;28;1450;-74
2022/12/06 07:05:13;;;;;;;;;;;;;;;;;;5094613;28;1239;-74
2022/12/06 07:07:39;;;;;;;;;;;;;;;;;;5094652;28;1391;-73
2022/12/06 07:10:05;;;;;;;;;;;;;;;;;;5094073;28;2014;-74
2022/12/06 07:12:31;;;;;;;;;;;;;;;;;;5087352;28;1430;-72
2022/12/06 07:14:57;;;;;;;;;;;;;;;;;;5092595;28;1199;-71
2022/12/06 07:17:24;;;;;;;;;;;;;;;;;;5093161;28;1610;-72
2022/12/06 07:19:50;;;;;;;;;;;;;;;;;;5093192;28;1360;-74
2022/12/06 07:22:16;;;;;;;;;;;;;;;;;;5087037;28;1459;-74
2022/12/06 07:24:42;;;;;;;;;;;;;;;;;;5092090;28;1646;-74
2022/12/06 07:27:08;;;;;;;;;;;;;;;;;;5093940;28;1387;-73
2022/12/06 07:29:34;;;;;;;;;;;;;;;;;;5091947;28;2457;-74
2022/12/06 07:32:00;;;;;;;;;;;;;;;;;;5093446;28;1926;-74
2022/12/06 07:34:26;;;;;;;;;;;;;;;;;;5093627;28;1051;-76
2022/12/06 07:36:53;;;;;;;;;;;;;;;;;;5090777;28;1456;-76
2022/12/06 07:39:19;;;;;;;;;;;;;;;;;;5093813;28;1381;-73
2022/12/06 07:47:22;;;;;;;;;;;;;;;;;;5087576;28;1518;-73
2022/12/06 07:49:48;;;;;;;;;;;;;;;;;;5091806;28;1451;-74
2022/12/06 07:52:14;;;;;;;;;;;;;;;;;;5088283;28;1909;-75
2022/12/06 07:54:40;;;;;;;;;;;;;;;;;;5091051;28;1490;-73
2022/12/06 07:57:07;;;;;;;;;;;;;;;;;;5089057;28;1914;-72
2022/12/06 07:59:34;;;;;;;;;;;;;;;;;;5091253;28;1403;-76
2022/12/06 08:02:00;;;;;;;;;;;;;;;;;;5087808;28;1555;-73
2022/12/06 08:04:26;;;;;;;;;;;;;;;;;;5088633;28;1443;-74
2022/12/06 08:06:53;;;;;;;;;;;;;;;;;;5090990;28;1497;-73
2022/12/06 08:09:19;;;;;;;;;;;;;;;;;;5089656;28;1439;-72
2022/12/06 08:11:45;;;;;;;;;;;;;;;;;;5087709;28;1971;-72
2022/12/06 08:14:11;;;;;;;;;;;;;;;;;;5090302;28;1477;-73
2022/12/06 08:16:37;;;;;;;;;;;;;;;;;;5089800;28;1389;-73
2022/12/06 08:19:03;;;;;;;;;;;;;;;;;;5090596;28;1317;-74
2022/12/06 08:21:29;;;;;;;;;;;;;;;;;;5089128;28;1489;-74
2022/12/06 08:23:55;;;;;;;;;;;;;;;;;;5088980;28;1400;-73
2022/12/06 08:26:22;;;;;;;;;;;;;;;;;;5088997;28;1856;-74
2022/12/06 08:28:48;;;;;;;;;;;;;;;;;;5090337;28;1303;-73
2022/12/06 08:31:14;;;;;;;;;;;;;;;;;;5090071;28;1926;-74
2022/12/06 08:33:40;;;;;;;;;;;;;;;;;;5092071;28;1085;-74
2022/12/06 08:36:07;;;;;;;;;;;;;;;;;;5091577;28;1408;-74
2022/12/06 08:38:33;;;;;;;;;;;;;;;;;;5092353;28;1387;-74
2022/12/06 08:40:59;;;;;;;;;;;;;;;;;;5091269;28;1454;-74
2022/12/06 08:43:25;;;;;;;;;;;;;;;;;;5091942;28;936;-71
2022/12/06 08:45:52;;;;;;;;;;;;;;;;;;5091144;28;1423;-75
2022/12/06 08:48:18;;;;;;;;;;;;;;;;;;5091826;28;1193;-75
2022/12/06 08:50:44;;;;;;;;;;;;;;;;;;5089653;28;1973;-74
2022/12/06 08:53:10;;;;;;;;;;;;;;;;;;5088961;28;1585;-75
2022/12/06 08:55:36;;;;;;;;;;;;;;;;;;5090018;28;1107;-76
2022/12/06 08:58:02;;;;;;;;;;;;;;;;;;5091107;28;1495;-76
2022/12/06 09:00:28;;;;;;;;;;;;;;;;;;5090737;28;1314;-72
2022/12/06 09:02:55;;;;;;;;;;;;;;;;;;5089250;28;1390;-74
2022/12/06 09:05:21;;;;;;;;;;;;;;;;;;5091446;28;1200;-73
2022/12/06 09:07:47;;;;;;;;;;;;;;;;;;5091770;28;1404;-73
2022/12/06 09:10:13;;;;;;;;;;;;;;;;;;5091457;28;944;-73
2022/12/06 09:12:39;;;;;;;;;;;;;;;;;;5088344;28;1914;-73
2022/12/06 09:15:05;;;;;;;;;;;;;;;;;;5091353;28;1129;-73
2022/12/06 09:17:31;;;;;;;;;;;;;;;;;;5091417;28;1314;-74
2022/12/06 09:19:57;;;;;;;;;;;;;;;;;;5089777;28;1349;-74
2022/12/06 09:22:23;;;;;;;;;;;;;;;;;;5090677;28;1055;-74
2022/12/06 09:24:49;;;;;;;;;;;;;;;;;;5091459;28;959;-73
2022/12/06 09:27:15;;;;;;;;;;;;;;;;;;5088302;28;1478;-74
2022/12/06 09:29:42;;;;;;;;;;;;;;;;;;5087807;28;1317;-73
2022/12/06 09:32:08;;;;;;;;;;;;;;;;;;5089577;28;1922;-73
2022/12/06 09:34:34;;;;;;;;;;;;;;;;;;5091351;28;1094;-73
2022/12/06 09:37:00;;;;;;;;;;;;;;;;;;5091352;28;1375;-73
2022/12/06 09:39:26;;;;;;;;;;;;;;;;;;5088155;28;1446;-73
2022/12/06 09:41:52;;;;;;;;;;;;;;;;;;5089910;28;1145;-75
2022/12/06 09:44:19;;;;;;;;;;;;;;;;;;5088665;28;1465;-74
2022/12/06 09:46:45;;;;;;;;;;;;;;;;;;5089505;28;1448;-73
2022/12/06 09:49:11;;;;;;;;;;;;;;;;;;5089430;28;1231;-74
2022/12/06 09:51:37;;;;;;;;;;;;;;;;;;5089242;28;1913;-74
2022/12/06 09:54:03;;;;;;;;;;;;;;;;;;5105416;28;1367;-74
2022/12/06 09:56:29;;;;;;;;;;;;;;;;;;5090678;28;1329;-72
2022/12/06 09:58:55;;;;;;;;;;;;;;;;;;5091097;28;898;-73
2022/12/06 10:01:21;;;;;;;;;;;;;;;;;;5090482;28;1012;-73
2022/12/06 10:03:47;;;;;;;;;;;;;;;;;;5090640;28;1383;-73
2022/12/06 10:06:14;;;;;;;;;;;;;;;;;;5090308;28;1408;-74
2022/12/06 10:08:40;;;;;;;;;;;;;;;;;;5103730;28;1459;-73
2022/12/06 10:11:06;;;;;;;;;;;;;;;;;;5113229;22;3579;-80
2022/12/06 10:13:32;;;;;;;;;;;;;;;;;;5061250;28;1265;-80
2022/12/06 10:15:58;;;;;;;;;;;;;;;;;;5064350;28;1820;-80
2022/12/06 10:18:24;;;;;;;;;;;;;;;;;;5063809;28;1469;-78
2022/12/06 10:20:50;;;;;;;;;;;;;;;;;;5071781;28;1485;-81
2022/12/06 10:23:16;;;;;;;;;;;;;;;;;;5072505;28;1441;-83
2022/12/06 10:25:42;;;;;;;;;;;;;;;;;;5076053;28;1209;-83
2022/12/06 10:28:08;;;;;;;;;;;;;;;;;;5080197;28;1379;-82
2022/12/06 10:30:35;;;;;;;;;;;;;;;;;;5075849;28;1193;-84
2022/12/06 10:33:04;;;;;;;;;;;;;;;;;;5088603;28;1898;-80
2022/12/06 10:35:30;;;;;;;;;;;;;;;;;;5078547;28;1443;-82
2022/12/06 10:37:56;;;;;;;;;;;;;;;;;;5081575;28;1231;-82
2022/12/06 10:40:22;;;;;;;;;;;;;;;;;;5088222;28;1206;-84
2022/12/06 10:42:48;;;;;;;;;;;;;;;;;;5086225;28;1311;-84
2022/12/06 10:47:54;;;;;;;;;;;;;;;;;;5075034;28;1498;-81
2022/12/06 10:50:21;;;;;;;;;;;;;;;;;;5064793;28;2593;-82
2022/12/06 10:52:47;;;;;;;;;;;;;;;;;;5074207;28;1914;-82
2022/12/06 10:55:13;;;;;;;;;;;;;;;;;;5073635;28;1391;-81
2022/12/06 10:57:39;;;;;;;;;;;;;;;;;;5065900;28;1063;-83
2022/12/06 11:00:05;;;;;;;;;;;;;;;;;;5059204;28;1422;-84
2022/12/06 11:02:31;;;;;;;;;;;;;;;;;;5053852;28;1744;-81
2022/12/06 11:04:57;;;;;;;;;;;;;;;;;;5058857;28;1764;-81
2022/12/06 11:07:24;;;;;;;;;;;;;;;;;;5064395;28;1956;-80
2022/12/06 11:09:50;;;;;;;;;;;;;;;;;;5058997;28;2043;-80
2022/12/06 11:12:16;;;;;;;;;;;;;;;;;;5062348;28;1945;-82
2022/12/06 11:14:45;;;;;;;;;;;;;;;;;;5066180;28;1697;-80
2022/12/06 11:17:11;;;;;;;;;;;;;;;;;;5058223;28;1829;-82
2022/12/06 11:19:38;;;;;;;;;;;;;;;;;;5059620;28;1412;-81
2022/12/06 11:22:04;;;;;;;;;;;;;;;;;;5077762;28;1381;-81
2022/12/06 11:24:30;;;;;;;;;;;;;;;;;;5075983;28;1382;-81
2022/12/06 11:26:56;;;;;;;;;;;;;;;;;;5069938;28;1449;-80
2022/12/06 11:29:22;;;;;;;;;;;;;;;;;;5080859;28;1571;-81
2022/12/06 11:31:48;;;;;;;;;;;;;;;;;;5073297;28;1918;-81
2022/12/06 11:34:14;;;;;;;;;;;;;;;;;;5073279;28;1385;-80
2022/12/06 11:36:41;;;;;;;;;;;;;;;;;;5058674;28;2014;-82
2022/12/06 11:39:07;;;;;;;;;;;;;;;;;;5057597;28;1729;-81
2022/12/06 11:41:33;;;;;;;;;;;;;;;;;;5048548;28;1892;-80
2022/12/06 11:43:59;;;;;;;;;;;;;;;;;;5053022;28;2172;-80
2022/12/06 11:46:25;;;;;;;;;;;;;;;;;;5054723;28;2031;-77
2022/12/06 11:48:51;;;;;;;;;;;;;;;;;;5050134;28;2284;-80
2022/12/06 11:51:18;;;;;;;;;;;;;;;;;;5073118;28;2106;-79
2022/12/06 11:53:44;;;;;;;;;;;;;;;;;;5081944;28;1931;-83
2022/12/06 11:56:10;;;;;;;;;;;;;;;;;;5076415;28;1744;-82
2022/12/06 11:58:36;;;;;;;;;;;;;;;;;;5068107;28;1302;-85
2022/12/06 12:01:02;;;;;;;;;;;;;;;;;;5071186;28;1322;-83
2022/12/06 12:03:28;;;;;;;;;;;;;;;;;;5079658;28;1412;-83
2022/12/06 12:05:55;;;;;;;;;;;;;;;;;;5070983;28;1620;-84
2022/12/06 12:08:21;;;;;;;;;;;;;;;;;;5080345;28;1211;-83
2022/12/06 12:10:47;;;;;;;;;;;;;;;;;;5077825;28;1532;-81
2022/12/06 12:15:57;;;;;;;;;;;;;;;;;;5084570;28;901;-83
2022/12/06 12:18:23;;;;;;;;;;;;;;;;;;5075477;28;996;-79
2022/12/06 12:20:49;;;;;;;;;;;;;;;;;;5070023;28;1437;-81
2022/12/06 12:23:15;;;;;;;;;;;;;;;;;;5081097;28;1256;-84
2022/12/06 12:25:42;;;;;;;;;;;;;;;;;;5085478;28;1465;-84
2022/12/06 12:28:08;;;;;;;;;;;;;;;;;;5075700;28;1549;-83
2022/12/06 12:30:35;;;;;;;;;;;;;;;;;;5077094;28;1565;-85
2022/12/06 12:33:01;;;;;;;;;;;;;;;;;;5071961;28;1914;-82
2022/12/06 12:35:27;;;;;;;;;;;;;;;;;;5068992;28;1879;-84
2022/12/06 12:37:54;;;;;;;;;;;;;;;;;;5079079;28;1224;-83
2022/12/06 12:40:20;;;;;;;;;;;;;;;;;;5085623;28;1205;-81
2022/12/06 12:42:46;;;;;;;;;;;;;;;;;;5067635;28;1617;-82
2022/12/06 12:45:12;;;;;;;;;;;;;;;;;;5073825;28;1233;-81
2022/12/06 12:47:38;;;;;;;;;;;;;;;;;;5085832;28;1051;-83
2022/12/06 12:50:04;;;;;;;;;;;;;;;;;;5084477;28;1063;-84
2022/12/06 12:52:30;;;;;;;;;;;;;;;;;;5081013;28;1954;-84
2022/12/06 12:54:57;;;;;;;;;;;;;;;;;;5077951;28;1173;-83
2022/12/06 12:57:23;;;;;;;;;;;;;;;;;;5072660;28;1768;-82
2022/12/06 12:59:49;;;;;;;;;;;;;;;;;;5058539;28;1589;-81
2022/12/06 13:02:15;;;;;;;;;;;;;;;;;;5059324;28;1544;-80
2022/12/06 13:04:41;;;;;;;;;;;;;;;;;;5060018;28;1565;-79
2022/12/06 13:07:07;;;;;;;;;;;;;;;;;;5062066;28;1233;-78
2022/12/06 13:09:33;;;;;;;;;;;;;;;;;;5055001;28;843;-79
2022/12/06 13:11:59;;;;;;;;;;;;;;;;;;5054110;28;1910;-78
2022/12/06 13:14:25;;;;;;;;;;;;;;;;;;5054992;28;1106;-79
2022/12/06 13:16:51;;;;;;;;;;;;;;;;;;5059651;28;932;-80
2022/12/06 13:19:17;;;;;;;;;;;;;;;;;;5059052;28;1055;-79
2022/12/06 13:21:44;;;;;;;;;;;;;;;;;;5055966;28;1380;-80
2022/12/06 13:24:10;;;;;;;;;;;;;;;;;;5055788;28;968;-78
2022/12/06 13:26:36;;;;;;;;;;;;;;;;;;5053300;28;1120;-79
2022/12/06 13:29:02;;;;;;;;;;;;;;;;;;5067298;28;965;-79
2022/12/06 13:31:28;;;;;;;;;;;;;;;;;;5073715;28;1416;-79
2022/12/06 13:33:54;;;;;;;;;;;;;;;;;;5071706;28;1918;-79
2022/12/06 13:36:20;;;;;;;;;;;;;;;;;;5076923;28;968;-80
2022/12/06 13:38:46;;;;;;;;;;;;;;;;;;5077003;28;1146;-80
2022/12/06 13:41:12;;;;;;;;;;;;;;;;;;5076292;28;1340;-79
2022/12/06 13:43:38;;;;;;;;;;;;;;;;;;5076432;28;1081;-81
2022/12/06 13:46:04;;;;;;;;;;;;;;;;;;5075455;28;1154;-80
2022/12/06 13:48:31;;;;;;;;;;;;;;;;;;5076161;28;1171;-80
2022/12/06 13:50:57;;;;;;;;;;;;;;;;;;5075586;28;1349;-79
2022/12/06 13:53:23;;;;;;;;;;;;;;;;;;5074956;28;1914;-78
2022/12/06 13:55:49;;;;;;;;;;;;;;;;;;5076961;28;965;-79
2022/12/06 13:58:15;;;;;;;;;;;;;;;;;;5076026;28;1144;-79
2022/12/06 14:00:41;;;;;;;;;;;;;;;;;;5077368;28;951;-80
2022/12/06 14:03:07;;;;;;;;;;;;;;;;;;5075518;28;1614;-80
2022/12/06 14:05:33;;;;;;;;;;;;;;;;;;5075215;28;774;-80
2022/12/06 14:07:59;;;;;;;;;;;;;;;;;;5071976;28;1079;-80
2022/12/06 14:10:26;;;;;;;;;;;;;;;;;;5054518;28;1131;-78
2022/12/06 14:12:52;;;;;;;;;;;;;;;;;;5055362;28;1906;-79
2022/12/06 14:15:19;;;;;;;;;;;;;;;;;;5056241;28;1047;-80
2022/12/06 14:17:45;;;;;;;;;;;;;;;;;;5050220;28;1453;-80
2022/12/06 14:20:11;;;;;;;;;;;;;;;;;;5053249;28;1148;-81
2022/12/06 14:22:37;;;;;;;;;;;;;;;;;;5053462;28;1306;-79
2022/12/06 14:25:03;;;;;;;;;;;;;;;;;;5055731;28;1112;-80
2022/12/06 14:27:29;;;;;;;;;;;;;;;;;;5055493;28;1352;-79
2022/12/06 14:29:56;;;;;;;;;;;;;;;;;;5055175;28;1219;-80
2022/12/06 14:32:22;;;;;;;;;;;;;;;;;;5056506;28;1890;-80
2022/12/06 14:34:49;;;;;;;;;;;;;;;;;;5054227;28;996;-80
2022/12/06 14:37:15;;;;;;;;;;;;;;;;;;5054606;28;1448;-81
2022/12/06 14:39:41;;;;;;;;;;;;;;;;;;5053665;28;1206;-80
2022/12/06 14:44:51;;;;;;;;;;;;;;;;;;5055212;28;966;-80
2022/12/06 14:47:17;;;;;;;;;;;;;;;;;;5055826;28;1001;-80
2022/12/06 14:52:28;;;;;;;;;;;;;;;;;;5054023;28;2003;-82
2022/12/06 14:54:54;;;;;;;;;;;;;;;;;;5059857;28;1056;-80
2022/12/06 14:57:20;;;;;;;;;;;;;;;;;;5060084;28;1182;-80
2022/12/06 14:59:46;;;;;;;;;;;;;;;;;;5058699;28;1219;-80
2022/12/06 15:02:12;;;;;;;;;;;;;;;;;;5056679;28;1308;-80
2022/12/06 15:04:38;;;;;;;;;;;;;;;;;;5054202;28;873;-80
2022/12/06 15:07:04;;;;;;;;;;;;;;;;;;5053219;28;1164;-81
2022/12/06 15:09:30;;;;;;;;;;;;;;;;;;5057590;28;802;-80
2022/12/06 15:14:40;;;;;;;;;;;;;;;;;;5056487;28;996;-80
2022/12/06 15:17:06;;;;;;;;;;;;;;;;;;5057598;28;1072;-82
2022/12/06 15:19:32;;;;;;;;;;;;;;;;;;5057629;28;1075;-80
2022/12/06 15:21:58;;;;;;;;;;;;;;;;;;5056827;28;1321;-80
2022/12/06 15:24:24;;;;;;;;;;;;;;;;;;5057873;28;1055;-80
2022/12/06 15:26:50;;;;;;;;;;;;;;;;;;5057623;28;1080;-82
2022/12/06 15:29:17;;;;;;;;;;;;;;;;;;5055240;28;1136;-82
2022/12/06 15:31:43;;;;;;;;;;;;;;;;;;5058731;28;1329;-80
2022/12/06 15:34:09;;;;;;;;;;;;;;;;;;5060857;28;1910;-82
2022/12/06 15:36:35;;;;;;;;;;;;;;;;;;5066437;28;1422;-81
2022/12/06 15:39:01;;;;;;;;;;;;;;;;;;5063785;28;1384;-80
2022/12/06 15:41:27;;;;;;;;;;;;;;;;;;5065466;28;1333;-80
2022/12/06 15:43:53;;;;;;;;;;;;;;;;;;5054861;28;910;-80
2022/12/06 15:46:19;;;;;;;;;;;;;;;;;;5058230;28;1407;-80
2022/12/06 15:48:45;;;;;;;;;;;;;;;;;;5071664;28;1390;-81
2022/12/06 15:51:11;;;;;;;;;;;;;;;;;;5074677;28;2084;-78
2022/12/06 15:53:37;;;;;;;;;;;;;;;;;;5057528;28;1918;-78
2022/12/06 15:56:04;;;;;;;;;;;;;;;;;;5053118;28;1419;-80
2022/12/06 15:58:30;;;;;;;;;;;;;;;;;;5034047;28;1571;-83
2022/12/06 16:00:57;;;;;;;;;;;;;;;;;;5007321;28;1463;-83
2022/12/06 16:03:24;;;;;;;;;;;;;;;;;;4994831;28;1371;-81
2022/12/06 16:05:50;;;;;;;;;;;;;;;;;;5011488;28;1343;-83
2022/12/06 16:08:16;;;;;;;;;;;;;;;;;;5067210;28;1119;-80
2022/12/06 16:10:42;;;;;;;;;;;;;;;;;;5012276;28;1518;-83
2022/12/06 16:13:22;;;;;;;;;;;;;;;;;;4990514;28;1933;-79
2022/12/06 16:18:29;;;;;;;;;;;;;;;;;;5024052;28;1399;-73
2022/12/06 16:20:56;;;;;;;;;;;;;;;;;;5040025;28;1329;-73
2022/12/06 16:26:06;;;;;;;;;;;;;;;;;;5041087;28;1297;-71
2022/12/06 16:28:35;;;;;;;;;;;;;;;;;;5041053;28;893;-70
2022/12/06 16:31:01;;;;;;;;;;;;;;;;;;5037770;28;904;-70
2022/12/06 16:33:28;;;;;;;;;;;;;;;;;;5018564;28;1944;-71
2022/12/06 16:35:57;;;;;;;;;;;;;;;;;;5039010;28;1416;-71
2022/12/06 16:38:24;;;;;;;;;;;;;;;;;;5021442;28;1739;-71
2022/12/06 16:40:50;;;;;;;;;;;;;;;;;;5033608;28;913;-71
2022/12/06 16:43:18;;;;;;;;;;;;;;;;;;5032830;28;1119;-71
2022/12/06 16:45:44;;;;;;;;;;;;;;;;;;5023637;28;1071;-71
2022/12/06 16:48:11;;;;;;;;;;;;;;;;;;5039919;28;1682;-71
2022/12/06 16:50:37;;;;;;;;;;;;;;;;;;5106288;28;1568;-73
2022/12/06 16:53:03;;;;;;;;;;;;;;;;;;5110351;28;1989;-72
2022/12/06 16:55:29;;;;;;;;;;;;;;;;;;5111329;28;1639;-72
2022/12/06 16:57:55;;;;;;;;;;;;;;;;;;5100266;28;1294;-71
2022/12/06 17:00:22;;;;;;;;;;;;;;;;;;5101196;28;1423;-73
2022/12/06 17:02:48;;;;;;;;;;;;;;;;;;5112030;28;1200;-73
2022/12/06 17:05:14;;;;;;;;;;;;;;;;;;5107823;28;1477;-71
2022/12/06 17:07:40;;;;;;;;;;;;;;;;;;5096439;28;1406;-71
2022/12/06 17:10:06;;;;;;;;;;;;;;;;;;5072484;28;1105;-72
2022/12/06 17:12:32;;;;;;;;;;;;;;;;;;5090120;28;1111;-72
2022/12/06 17:14:58;;;;;;;;;;;;;;;;;;5090602;28;1976;-72
2022/12/06 17:17:28;;;;;;;;;;;;;;;;;;5090722;28;1395;-72
2022/12/06 17:19:55;;;;;;;;;;;;;;;;;;5090514;28;1037;-71
2022/12/06 17:22:21;;;;;;;;;;;;;;;;;;5090517;28;1012;-72
2022/12/06 17:24:47;;;;;;;;;;;;;;;;;;5092256;28;901;-72
2022/12/06 17:27:14;;;;;;;;;;;;;;;;;;5074190;28;1475;-72
2022/12/06 17:29:40;;;;;;;;;;;;;;;;;;5092407;28;838;-72
2022/12/06 17:32:06;;;;;;;;;;;;;;;;;;5091239;28;719;-72
2022/12/06 17:34:32;;;;;;;;;;;;;;;;;;5091691;28;1988;-72
2022/12/06 17:36:58;;;;;;;;;;;;;;;;;;5092387;28;1397;-72
2022/12/06 17:39:24;;;;;;;;;;;;;;;;;;5074196;28;1243;-72